createdAt,value
2019-03-18T00:00:56.876Z,0.97
2019-03-18T00:03:27.397Z,1.93
2019-03-18T00:05:57.934Z,1.07
2019-03-18T00:08:28.453Z,1.00
2019-03-18T00:10:59.010Z,0.90
2019-03-18T00:13:29.568Z,1.17
2019-03-18T00:16:00.281Z,1.20
2019-03-18T00:18:30.809Z,0.80
2019-03-18T00:21:01.366Z,1.10
2019-03-18T00:23:32.953Z,0.97
2019-03-18T00:26:03.569Z,1.00
2019-03-18T00:28:34.127Z,1.00
2019-03-18T00:31:04.733Z,0.83
2019-03-18T00:33:35.271Z,1.33
2019-03-18T00:36:06.793Z,0.90
2019-03-18T00:38:37.412Z,0.93
2019-03-18T00:41:08.027Z,0.97
2019-03-18T00:43:38.626Z,0.97
2019-03-18T00:46:09.162Z,0.90
2019-03-18T00:48:39.827Z,1.00
2019-03-18T00:51:10.464Z,0.97
2019-03-18T00:53:41.069Z,1.30
2019-03-18T00:56:11.601Z,1.10
2019-03-18T00:58:42.117Z,1.10
2019-03-18T01:01:12.742Z,1.00
2019-03-18T01:03:43.340Z,1.00
2019-03-18T01:06:13.902Z,1.13
2019-03-18T01:08:44.498Z,1.00
2019-03-18T01:11:15.050Z,1.10
2019-03-18T01:13:45.661Z,1.17
2019-03-18T01:16:16.273Z,0.80
2019-03-18T01:18:46.882Z,1.17
2019-03-18T01:21:17.427Z,0.90
2019-03-18T01:23:48.025Z,1.10
2019-03-18T01:26:18.731Z,1.10
2019-03-18T01:28:49.873Z,1.20
2019-03-18T01:31:20.453Z,1.00
2019-03-18T01:33:51.054Z,1.00
2019-03-18T01:36:21.681Z,1.23
2019-03-18T01:38:52.210Z,1.10
2019-03-18T01:41:22.841Z,1.17
2019-03-18T01:43:53.365Z,1.10
2019-03-18T01:46:24.105Z,0.93
2019-03-18T01:48:54.789Z,1.20
2019-03-18T01:51:25.415Z,1.00
2019-03-18T01:53:56.017Z,1.10
2019-03-18T01:56:26.620Z,1.40
2019-03-18T01:58:57.242Z,1.30
2019-03-18T02:01:27.856Z,1.20
2019-03-18T02:03:58.369Z,1.20
2019-03-18T02:09:24.077Z,1.53
2019-03-18T02:11:54.691Z,0.87
2019-03-18T02:14:25.305Z,1.10
2019-03-18T02:16:55.837Z,1.13
2019-03-18T02:19:26.356Z,1.40
2019-03-18T02:21:56.982Z,1.30
2019-03-18T02:24:27.577Z,1.20
2019-03-18T02:26:58.113Z,1.03
2019-03-18T02:29:28.642Z,1.30
2019-03-18T02:31:59.171Z,1.20
2019-03-18T02:34:29.783Z,1.20
2019-03-18T02:37:00.400Z,1.30
2019-03-18T02:39:31.010Z,1.50
2019-03-18T02:42:02.707Z,1.47
2019-03-18T02:44:33.310Z,1.50
2019-03-18T02:47:03.901Z,1.90
2019-03-18T02:49:34.429Z,1.10
2019-03-18T02:52:04.951Z,1.57
2019-03-18T02:54:35.485Z,1.50
2019-03-18T02:57:06.094Z,2.03
2019-03-18T02:59:36.699Z,1.40
2019-03-18T03:02:07.295Z,1.50
2019-03-18T03:04:37.905Z,2.00
2019-03-18T03:07:08.594Z,2.07
2019-03-18T03:09:39.201Z,1.90
2019-03-18T03:12:09.811Z,1.43
2019-03-18T03:14:40.444Z,2.13
2019-03-18T03:17:11.115Z,1.87
2019-03-18T03:19:41.744Z,2.10
2019-03-18T03:22:12.329Z,1.60
2019-03-18T03:24:42.938Z,1.50
2019-03-18T03:27:13.531Z,1.90
2019-03-18T03:29:44.070Z,1.90
2019-03-18T03:32:14.673Z,2.00
2019-03-18T03:34:45.284Z,1.23
2019-03-18T03:37:15.867Z,1.77
2019-03-18T03:39:46.491Z,1.70
2019-03-18T03:42:17.157Z,2.10
2019-03-18T03:44:47.769Z,1.77
2019-03-18T03:47:18.283Z,1.70
2019-03-18T03:49:48.887Z,1.90
2019-03-18T03:52:19.472Z,1.90
2019-03-18T03:54:50.085Z,1.80
2019-03-18T03:57:20.691Z,1.80
2019-03-18T03:59:51.301Z,1.87
2019-03-18T04:02:21.836Z,1.90
2019-03-18T04:04:52.450Z,1.70
2019-03-18T04:07:23.118Z,1.70
2019-03-18T04:09:53.738Z,1.70
2019-03-18T04:12:24.353Z,1.40
2019-03-18T04:14:55.001Z,1.80
2019-03-18T04:17:26.555Z,1.57
2019-03-18T04:19:57.167Z,1.77
2019-03-18T04:22:27.761Z,1.60
2019-03-18T04:24:58.305Z,1.97
2019-03-18T04:27:28.889Z,1.83
2019-03-18T04:29:59.430Z,1.70
2019-03-18T04:32:30.028Z,1.40
2019-03-18T04:35:00.751Z,1.80
2019-03-18T04:37:31.344Z,1.87
2019-03-18T04:40:01.967Z,2.00
2019-03-18T04:42:32.561Z,1.53
2019-03-18T04:45:03.192Z,1.50
2019-03-18T04:47:33.793Z,1.47
2019-03-18T04:50:04.369Z,2.37
2019-03-18T04:52:34.974Z,1.73
2019-03-18T04:55:05.884Z,1.57
2019-03-18T04:57:36.417Z,1.73
2019-03-18T05:00:07.085Z,2.87
2019-03-18T05:02:37.678Z,1.93
2019-03-18T05:05:08.289Z,2.07
2019-03-18T05:07:38.809Z,1.73
2019-03-18T05:10:09.470Z,2.13
2019-03-18T05:12:40.081Z,1.73
2019-03-18T05:15:10.680Z,2.10
2019-03-18T05:17:42.264Z,2.00
2019-03-18T05:20:12.915Z,1.77
2019-03-18T05:22:43.507Z,1.70
2019-03-18T05:25:14.052Z,2.10
2019-03-18T05:27:44.637Z,1.40
2019-03-18T05:30:15.312Z,1.33
2019-03-18T05:32:45.868Z,1.53
2019-03-18T05:35:16.433Z,1.70
2019-03-18T05:37:47.021Z,2.07
2019-03-18T05:40:17.576Z,2.40
2019-03-18T05:42:48.186Z,2.80
2019-03-18T05:45:18.794Z,1.87
2019-03-18T05:47:49.321Z,1.93
2019-03-18T05:50:19.952Z,2.63
2019-03-18T05:52:50.533Z,2.30
2019-03-18T05:55:21.077Z,1.73
2019-03-18T05:57:51.678Z,2.57
2019-03-18T06:00:22.213Z,2.13
2019-03-18T06:02:52.813Z,2.20
2019-03-18T06:05:23.435Z,2.10
2019-03-18T06:07:54.017Z,1.90
2019-03-18T06:10:24.546Z,1.93
2019-03-18T06:12:55.154Z,1.80
2019-03-18T06:15:25.709Z,1.50
2019-03-18T06:17:56.226Z,2.30
2019-03-18T06:20:26.850Z,2.33
2019-03-18T06:22:57.370Z,1.97
2019-03-18T06:25:27.999Z,1.70
2019-03-18T06:27:58.608Z,1.23
2019-03-18T06:30:29.217Z,1.33
2019-03-18T06:32:59.738Z,1.57
2019-03-18T06:35:30.275Z,1.60
2019-03-18T06:38:00.871Z,1.37
2019-03-18T06:40:31.406Z,1.47
2019-03-18T06:43:01.917Z,1.90
2019-03-18T06:45:32.467Z,1.63
2019-03-18T06:48:05.199Z,1.50
2019-03-18T06:50:35.294Z,1.47
2019-03-18T06:53:05.954Z,1.73
2019-03-18T06:55:36.505Z,1.93
2019-03-18T06:58:08.092Z,1.77
2019-03-18T07:00:38.837Z,1.60
2019-03-18T07:03:09.378Z,1.80
2019-03-18T07:05:41.080Z,1.70
2019-03-18T07:08:11.786Z,1.70
2019-03-18T07:10:42.332Z,2.10
2019-03-18T07:13:12.939Z,2.00
2019-03-18T07:15:43.538Z,2.00
2019-03-18T07:18:18.655Z,1.50
2019-03-18T07:20:46.370Z,2.47
2019-03-18T07:23:16.906Z,1.70
2019-03-18T07:25:47.525Z,1.90
2019-03-18T07:28:18.309Z,2.00
2019-03-18T07:30:48.921Z,2.03
2019-03-18T07:33:19.533Z,2.60
2019-03-18T07:35:50.105Z,1.90
2019-03-18T07:38:20.709Z,2.67
2019-03-18T07:40:51.337Z,2.20
2019-03-18T07:43:21.921Z,2.37
2019-03-18T07:45:52.546Z,2.20
2019-03-18T07:48:30.786Z,1.93
2019-03-18T07:50:56.526Z,2.20
2019-03-18T07:53:27.134Z,1.80
2019-03-18T07:55:58.061Z,2.60
2019-03-18T07:58:28.654Z,2.20
2019-03-18T08:00:59.290Z,2.83
2019-03-18T08:03:29.992Z,2.00
2019-03-18T08:06:00.699Z,2.20
2019-03-18T08:08:32.332Z,2.20
2019-03-18T08:11:02.905Z,1.87
2019-03-18T08:13:33.522Z,2.10
2019-03-18T08:16:14.210Z,2.13
2019-03-18T08:18:44.730Z,2.13
2019-03-18T08:21:15.362Z,2.27
2019-03-18T08:23:46.096Z,2.50
2019-03-18T08:26:16.642Z,2.07
2019-03-18T08:28:47.243Z,2.40
2019-03-18T08:31:17.930Z,2.43
2019-03-18T08:33:48.456Z,2.00
2019-03-18T08:36:19.074Z,2.40
2019-03-18T08:38:49.803Z,2.10
2019-03-18T08:41:20.417Z,2.33
2019-03-18T08:43:50.923Z,2.67
2019-03-18T08:46:21.551Z,2.23
2019-03-18T08:48:55.949Z,2.60
2019-03-18T08:51:24.405Z,2.30
2019-03-18T08:53:54.921Z,2.03
2019-03-18T08:56:25.476Z,1.53
2019-03-18T08:58:56.009Z,1.90
2019-03-18T09:01:26.634Z,1.70
2019-03-18T09:03:57.168Z,1.67
2019-03-18T09:06:30.208Z,1.60
2019-03-18T09:09:00.054Z,1.40
2019-03-18T09:11:30.673Z,1.77
2019-03-18T09:14:01.304Z,1.30
2019-03-18T09:16:32.237Z,1.50
2019-03-18T09:19:08.487Z,1.47
2019-03-18T09:21:35.192Z,1.50
2019-03-18T09:24:05.811Z,1.30
2019-03-18T09:26:36.429Z,1.50
2019-03-18T09:29:07.038Z,1.23
2019-03-18T09:31:37.585Z,1.40
2019-03-18T09:34:08.111Z,1.40
2019-03-18T09:36:38.730Z,1.60
2019-03-18T09:39:09.345Z,1.10
2019-03-18T09:41:39.980Z,1.20
2019-03-18T09:44:10.503Z,1.63
2019-03-18T09:46:41.194Z,1.67
2019-03-18T09:49:20.921Z,1.70
2019-03-18T09:51:44.093Z,1.53
2019-03-18T09:54:14.731Z,1.50
2019-03-18T09:56:45.345Z,1.60
2019-03-18T09:59:15.889Z,1.30
2019-03-18T10:01:46.490Z,1.27
2019-03-18T10:04:17.039Z,1.57
2019-03-18T10:06:48.526Z,1.47
2019-03-18T10:09:19.149Z,1.30
2019-03-18T10:11:49.751Z,1.50
2019-03-18T10:14:20.510Z,1.43
2019-03-18T10:16:51.115Z,1.30
2019-03-18T10:19:32.759Z,1.43
2019-03-18T10:21:53.947Z,1.33
2019-03-18T10:24:24.552Z,1.43
2019-03-18T10:26:55.079Z,1.67
2019-03-18T10:29:25.702Z,1.30
2019-03-18T10:31:56.229Z,1.57
2019-03-18T10:34:26.865Z,1.40
2019-03-18T10:36:57.406Z,1.20
2019-03-18T10:39:28.069Z,1.03
2019-03-18T10:41:58.670Z,1.27
2019-03-18T10:44:29.280Z,1.17
2019-03-18T10:46:59.890Z,1.07
2019-03-18T10:49:30.586Z,0.93
2019-03-18T10:52:03.318Z,1.40
2019-03-18T10:54:33.934Z,1.03
2019-03-18T10:57:04.625Z,1.27
2019-03-18T10:59:35.241Z,1.83
2019-03-18T11:02:06.189Z,1.50
2019-03-18T11:04:36.879Z,1.53
2019-03-18T11:07:07.487Z,1.70
2019-03-18T11:09:38.097Z,2.17
2019-03-18T11:12:08.617Z,1.20
2019-03-18T11:14:40.273Z,1.87
2019-03-18T11:17:10.785Z,1.10
2019-03-18T11:19:41.405Z,1.60
2019-03-18T11:22:11.993Z,1.20
2019-03-18T11:24:43.773Z,1.50
2019-03-18T11:27:14.360Z,1.00
2019-03-18T11:29:45.042Z,1.00
2019-03-18T11:32:15.640Z,1.30
2019-03-18T11:34:46.245Z,1.00
2019-03-18T11:37:16.772Z,1.07
2019-03-18T11:39:47.388Z,1.17
2019-03-18T11:42:17.981Z,1.10
2019-03-18T11:44:48.597Z,0.80
2019-03-18T11:47:19.212Z,0.80
2019-03-18T11:49:49.829Z,0.97
2019-03-18T11:52:20.498Z,1.10
2019-03-18T11:54:52.017Z,1.10
2019-03-18T11:57:22.661Z,1.20
2019-03-18T11:59:53.237Z,0.87
2019-03-18T12:02:28.036Z,1.37
2019-03-18T12:04:57.674Z,1.17
2019-03-18T12:07:28.389Z,0.90
2019-03-18T12:09:59.019Z,0.90
2019-03-18T12:12:29.592Z,0.70
2019-03-18T12:15:00.229Z,0.90
2019-03-18T12:17:30.860Z,0.90
2019-03-18T12:20:01.478Z,0.87
2019-03-18T12:22:32.412Z,1.20
2019-03-18T12:25:03.021Z,0.80
2019-03-18T12:27:33.531Z,0.90
2019-03-18T12:30:05.137Z,0.70
2019-03-18T12:32:35.734Z,1.00
2019-03-18T12:35:06.429Z,1.00
2019-03-18T12:37:37.041Z,0.73
2019-03-18T12:40:09.185Z,0.90
2019-03-18T12:42:39.817Z,0.60
2019-03-18T12:45:11.584Z,1.10
2019-03-18T12:47:42.469Z,1.10
2019-03-18T12:50:14.580Z,0.90
2019-03-18T12:52:45.181Z,1.10
2019-03-18T12:55:15.824Z,1.00
2019-03-18T12:57:46.425Z,1.10
2019-03-18T13:00:19.437Z,1.20
2019-03-18T13:02:49.945Z,1.17
2019-03-18T13:05:20.569Z,0.90
2019-03-18T13:07:51.173Z,1.03
2019-03-18T13:10:22.120Z,1.40
2019-03-18T13:12:52.814Z,1.70
2019-03-18T13:15:23.443Z,1.40
2019-03-18T13:17:53.962Z,1.03
2019-03-18T13:20:24.626Z,1.10
2019-03-18T13:22:55.198Z,1.23
2019-03-18T13:25:25.817Z,1.00
2019-03-18T13:27:56.444Z,1.10
2019-03-18T13:30:27.069Z,1.10
2019-03-18T13:32:57.653Z,0.83
2019-03-18T13:35:28.337Z,1.10
2019-03-18T13:37:58.942Z,0.90
2019-03-18T13:40:29.485Z,1.13
2019-03-18T13:43:00.117Z,0.83
2019-03-18T13:45:30.677Z,0.90
2019-03-18T13:48:01.197Z,0.90
2019-03-18T13:50:31.819Z,0.97
2019-03-18T13:53:02.437Z,1.20
2019-03-18T13:55:33.049Z,1.27
2019-03-18T13:58:03.720Z,1.10
2019-03-18T14:00:34.349Z,1.23
2019-03-18T14:03:04.946Z,1.20
2019-03-18T14:05:35.518Z,1.63
2019-03-18T14:08:06.137Z,1.20
2019-03-18T14:10:36.772Z,1.50
2019-03-18T14:13:07.372Z,1.40
2019-03-18T14:15:37.981Z,1.30
2019-03-18T14:18:08.525Z,1.33
2019-03-18T14:20:39.045Z,1.53
2019-03-18T14:23:09.582Z,1.53
2019-03-18T14:25:40.092Z,0.97
2019-03-18T14:28:10.699Z,1.60
2019-03-18T14:30:41.290Z,1.10
2019-03-18T14:33:11.833Z,1.00
2019-03-18T14:35:42.430Z,1.10
2019-03-18T14:38:13.033Z,1.40
2019-03-18T14:40:43.619Z,1.23
2019-03-18T14:43:14.238Z,1.30
2019-03-18T14:45:44.754Z,0.90
2019-03-18T14:48:15.295Z,1.00
2019-03-18T14:50:45.886Z,1.20
2019-03-18T14:53:16.511Z,1.00
2019-03-18T14:55:47.109Z,1.20
2019-03-18T14:58:17.720Z,1.20
2019-03-18T15:00:48.318Z,1.67
2019-03-18T15:03:18.924Z,1.70
2019-03-18T15:05:49.437Z,1.53
2019-03-18T15:08:19.967Z,1.37
2019-03-18T15:10:50.472Z,1.50
2019-03-18T15:13:30.343Z,1.70
2019-03-18T15:15:53.314Z,1.53
2019-03-18T15:18:23.925Z,2.70
2019-03-18T15:20:54.510Z,2.87
2019-03-18T15:23:25.051Z,3.60
2019-03-18T15:25:55.637Z,3.00
2019-03-18T15:28:26.189Z,2.80
2019-03-18T15:30:56.706Z,2.67
2019-03-18T15:33:27.246Z,1.97
2019-03-18T15:35:57.761Z,2.53
2019-03-18T15:38:29.277Z,3.70
2019-03-18T15:40:59.789Z,3.80
2019-03-18T15:43:30.333Z,3.20
2019-03-18T15:46:00.926Z,1.67
2019-03-18T15:48:31.477Z,3.70
2019-03-18T15:51:01.994Z,1.63
2019-03-18T15:53:32.536Z,1.67
2019-03-18T15:56:03.127Z,1.50
2019-03-18T15:58:33.746Z,1.53
2019-03-18T16:01:04.348Z,1.40
2019-03-18T16:03:34.900Z,3.13
2019-03-18T16:06:05.474Z,1.43
2019-03-18T16:08:36.009Z,1.30
2019-03-18T16:11:06.530Z,2.93
2019-03-18T16:13:37.086Z,2.67
2019-03-18T16:16:07.721Z,2.50
2019-03-18T16:18:38.262Z,2.63
2019-03-18T16:21:08.878Z,1.23
2019-03-18T16:23:39.497Z,2.40
2019-03-18T16:26:10.005Z,2.70
2019-03-18T16:28:40.554Z,1.13
2019-03-18T16:31:11.063Z,1.30
2019-03-18T16:33:41.690Z,1.30
2019-03-18T16:36:12.285Z,1.30
2019-03-18T16:38:42.907Z,1.40
2019-03-18T16:41:13.501Z,2.00
2019-03-18T16:43:44.052Z,3.80
2019-03-18T16:46:14.638Z,3.00
2019-03-18T16:48:46.049Z,4.13
2019-03-18T16:51:16.646Z,4.37
2019-03-18T16:53:47.185Z,3.27
2019-03-18T16:56:17.702Z,4.20
2019-03-18T16:58:48.256Z,4.40
2019-03-18T17:01:18.849Z,2.00
2019-03-18T17:03:49.417Z,1.77
2019-03-18T17:06:20.017Z,1.90
2019-03-18T17:08:50.637Z,1.83
2019-03-18T17:11:21.237Z,2.53
2019-03-18T17:13:51.871Z,3.47
2019-03-18T17:16:22.422Z,3.20
2019-03-18T17:18:53.018Z,3.30
2019-03-18T17:21:23.548Z,1.30
2019-03-18T17:23:54.169Z,2.37
2019-03-18T17:26:24.693Z,2.00
2019-03-18T17:28:55.229Z,3.23
2019-03-18T17:31:25.769Z,6.90
2019-03-18T17:33:56.401Z,2.00
2019-03-18T17:36:26.938Z,2.73
2019-03-18T17:38:57.633Z,2.27
2019-03-18T17:41:28.248Z,1.80
2019-03-18T17:43:58.871Z,1.63
2019-03-18T17:46:30.462Z,2.07
2019-03-18T17:49:01.014Z,1.77
2019-03-18T17:51:33.412Z,1.80
2019-03-18T17:54:03.866Z,1.40
2019-03-18T17:56:34.478Z,2.83
2019-03-18T17:59:05.159Z,1.73
2019-03-18T18:01:35.769Z,1.97
2019-03-18T18:04:06.329Z,1.80
2019-03-18T18:06:36.930Z,3.37
2019-03-18T18:09:08.464Z,2.77
2019-03-18T18:11:39.049Z,2.50
2019-03-18T18:14:09.601Z,3.43
2019-03-18T18:16:40.206Z,2.47
2019-03-18T18:19:11.212Z,3.47
2019-03-18T18:21:41.738Z,4.40
2019-03-18T18:24:12.281Z,2.73
2019-03-18T18:26:42.874Z,3.30
2019-03-18T18:29:13.517Z,4.90
2019-03-18T18:31:44.048Z,3.30
2019-03-18T18:34:14.690Z,3.37
2019-03-18T18:36:45.304Z,3.00
2019-03-18T18:39:15.928Z,3.50
2019-03-18T18:41:46.530Z,3.10
2019-03-18T18:44:17.160Z,3.60
2019-03-18T18:46:47.761Z,2.90
2019-03-18T18:49:18.298Z,3.87
2019-03-18T18:51:48.902Z,3.93
2019-03-18T18:54:19.601Z,5.63
2019-03-18T18:56:50.128Z,4.40
2019-03-18T18:59:20.821Z,3.60
2019-03-18T19:01:51.421Z,3.37
2019-03-18T19:04:22.059Z,3.97
2019-03-18T19:06:52.681Z,3.30
2019-03-18T19:09:23.377Z,3.77
2019-03-18T19:11:53.981Z,3.60
2019-03-18T19:14:24.535Z,4.40
2019-03-18T19:16:55.139Z,4.60
2019-03-18T19:19:25.693Z,5.13
2019-03-18T19:21:56.209Z,5.00
2019-03-18T19:24:26.821Z,4.87
2019-03-18T19:26:57.493Z,4.17
2019-03-18T19:29:28.121Z,4.33
2019-03-18T19:31:58.733Z,5.30
2019-03-18T19:34:29.343Z,4.07
2019-03-18T19:36:59.877Z,3.23
2019-03-18T19:39:30.500Z,4.17
2019-03-18T19:42:01.102Z,4.70
2019-03-18T19:44:31.715Z,5.70
2019-03-18T19:47:02.314Z,7.60
2019-03-18T19:49:32.952Z,11.07
2019-03-18T19:52:03.559Z,12.23
2019-03-18T19:54:34.185Z,8.53
2019-03-18T19:57:04.722Z,7.40
2019-03-18T19:59:35.358Z,8.03
2019-03-18T20:02:06.173Z,7.50
2019-03-18T20:04:37.064Z,7.80
2019-03-18T20:07:07.661Z,8.03
2019-03-18T20:15:31.558Z,7.73
2019-03-18T20:18:02.084Z,7.60
2019-03-18T20:20:32.750Z,8.50
2019-03-18T20:23:03.354Z,8.80
2019-03-18T20:25:33.970Z,8.70
2019-03-18T20:28:07.615Z,9.27
2019-03-18T20:30:39.226Z,10.13
2019-03-18T20:33:17.965Z,10.00
2019-03-18T20:35:48.725Z,10.30
2019-03-18T20:38:19.330Z,10.20
2019-03-18T20:40:50.009Z,8.70
2019-03-18T20:43:20.728Z,8.40
2019-03-18T20:45:51.410Z,9.40
2019-03-18T20:48:22.075Z,9.07
2019-03-18T20:50:52.757Z,9.07
2019-03-18T20:53:23.317Z,9.57
2019-03-18T20:55:54.030Z,10.87
2019-03-18T20:58:24.643Z,10.40
2019-03-18T21:00:55.373Z,10.40
2019-03-18T21:03:25.934Z,11.10
2019-03-18T21:05:56.552Z,11.47
2019-03-18T21:08:28.054Z,11.47
2019-03-18T21:10:58.739Z,10.03
2019-03-18T21:13:29.349Z,9.70
2019-03-18T21:15:59.973Z,11.13
2019-03-18T21:18:30.577Z,12.00
2019-03-18T21:21:01.286Z,18.47
2019-03-18T21:23:31.966Z,13.40
2019-03-18T21:26:02.585Z,16.00
2019-03-18T21:28:40.895Z,10.43
2019-03-18T21:31:05.385Z,10.63
2019-03-18T21:33:35.981Z,11.50
2019-03-18T21:36:06.607Z,11.97
2019-03-18T21:38:37.218Z,13.27
2019-03-18T21:41:07.905Z,12.80
2019-03-18T21:43:39.753Z,12.40
2019-03-18T21:46:10.309Z,12.50
2019-03-18T21:48:41.985Z,13.53
2019-03-18T21:51:12.543Z,13.93
2019-03-18T21:53:45.433Z,11.70
2019-03-18T21:56:15.986Z,12.17
2019-03-18T21:58:46.605Z,12.50
2019-03-18T22:01:17.223Z,12.93
2019-03-18T22:03:47.881Z,11.37
2019-03-18T22:06:18.550Z,12.23
2019-03-18T22:08:50.237Z,12.50
2019-03-18T22:11:20.846Z,12.17
2019-03-18T22:13:51.498Z,12.10
2019-03-18T22:16:22.116Z,12.07
2019-03-18T22:18:52.801Z,12.67
2019-03-18T22:21:23.493Z,11.57
2019-03-18T22:23:54.136Z,14.77
2019-03-18T22:26:24.798Z,15.90
2019-03-18T22:28:55.349Z,15.40
2019-03-18T22:31:25.963Z,14.83
2019-03-18T22:33:56.573Z,13.63
2019-03-18T22:36:27.172Z,12.37
2019-03-18T22:38:57.734Z,11.07
2019-03-18T22:41:30.222Z,12.27
2019-03-18T22:44:00.610Z,10.90
2019-03-18T22:46:31.221Z,11.60
2019-03-18T22:49:01.860Z,10.77
2019-03-18T22:51:33.425Z,11.10
2019-03-18T22:54:04.377Z,12.47
2019-03-18T22:56:34.987Z,13.63
2019-03-18T22:59:05.606Z,13.33
2019-03-18T23:01:36.303Z,13.00
2019-03-18T23:04:06.926Z,12.93
2019-03-18T23:06:37.537Z,12.77
2019-03-18T23:09:08.292Z,12.90
2019-03-18T23:11:38.822Z,12.87
2019-03-18T23:14:09.469Z,13.10
2019-03-18T23:16:40.061Z,13.60
2019-03-18T23:19:10.624Z,13.50
2019-03-18T23:21:41.226Z,13.10
2019-03-18T23:24:11.928Z,12.60
2019-03-18T23:26:42.534Z,12.60
2019-03-18T23:29:13.167Z,12.60
2019-03-18T23:31:43.825Z,11.53
2019-03-18T23:34:14.445Z,12.13
2019-03-18T23:36:45.058Z,11.87
2019-03-18T23:39:15.693Z,12.40
2019-03-18T23:41:46.225Z,11.33
2019-03-18T23:44:16.782Z,13.80
2019-03-18T23:46:47.396Z,13.67
2019-03-18T23:49:18.032Z,14.20
2019-03-18T23:51:48.636Z,14.07
2019-03-18T23:54:19.281Z,13.40
2019-03-18T23:56:49.850Z,14.63
2019-03-18T23:59:20.479Z,13.80
